Terminal Aerodrome Forecast
Issued by NWS Wilmington, OH

Current Version | Previous Version | Text Only | Print | Product List | Glossary Off
Versions: 1 2 3 4 5 6 7 8 9 10 11 12 13 14 15 16 17 18

462
FTUS41 KILN 201134
TAFILN
TAF
KILN 201134Z 2012/2112 12007KT P6SM VCSH OVC060
     FM201300 17007KT 6SM -SHRA VCTS OVC050CB
      TEMPO 2013/2015 4SM -TSRA BR OVC025CB
     FM201600 18009KT P6SM VCSH BKN070
     FM202200 16005KT 4SM -SHRA BR OVC035
     FM210200 VRB03KT 5SM BR VCSH OVC015
     FM210500 01005KT 5SM BR OVC007=

USA.gov is the U.S. government's official web portal to all federal, state and local government web resources and services.